Time;durP1;ratioP1;P1;durP2;ratioP2;P2;SDS_P1;SDS_P2;PMS_P1;PMS_P2;Temp;Humidity;BMP_temperature;BMP_pressure;BME280_temperature;BME280_humidity;BME280_pressure;Samples;Min_cycle;Max_cycle;Signal;HPM_P1;HPM_P2
2021/05/19 00:00:11;;;;;;;5.13;3.47;;;;;;;9.04;79.86;101282.69;5059106;28;20056;-88
2021/05/19 00:02:36;;;;;;;7.50;4.72;;;;;;;8.84;82.73;101287.47;5068446;28;20055;-88
2021/05/19 00:05:03;;;;;;;8.90;4.95;;;;;;;8.90;81.98;101296.44;5067796;28;20064;-88
2021/05/19 00:07:29;;;;;;;9.95;4.55;;;;;;;8.97;80.99;101291.81;5069500;28;20052;-88
2021/05/19 00:10:10;;;;;;;8.15;4.60;;;;;;;8.89;82.05;101284.94;5069231;28;20061;-88
2021/05/19 00:12:36;;;;;;;8.75;4.65;;;;;;;9.02;81.10;101283.97;5068999;28;20115;-88
2021/05/19 00:15:04;;;;;;;8.43;4.85;;;;;;;9.07;80.92;101276.06;5064936;28;21649;-88
2021/05/19 00:17:29;;;;;;;8.50;4.78;;;;;;;9.09;80.92;101274.81;5066444;28;20056;-87
2021/05/19 00:19:54;;;;;;;8.82;4.85;;;;;;;9.14;80.98;101276.78;5067747;28;20072;-88
2021/05/19 00:22:20;;;;;;;8.15;4.00;;;;;;;9.15;81.56;101283.78;5068121;28;20029;-87
2021/05/19 00:24:46;;;;;;;6.47;3.92;;;;;;;9.21;81.28;101279.41;5084227;28;20013;-89
2021/05/19 00:27:11;;;;;;;6.35;3.83;;;;;;;9.29;80.62;101276.41;5067494;28;20867;-88
2021/05/19 00:29:37;;;;;;;8.20;4.10;;;;;;;9.32;80.31;101273.28;5067959;28;20055;-87
2021/05/19 00:32:03;;;;;;;6.43;4.03;;;;;;;9.39;79.41;101272.16;5068105;28;20048;-87
2021/05/19 00:34:28;;;;;;;5.18;4.00;;;;;;;9.37;79.80;101276.09;5075684;28;20028;-88
2021/05/19 00:36:54;;;;;;;6.57;4.10;;;;;;;9.36;79.57;101269.94;5065214;28;20074;-88
2021/05/19 00:39:19;;;;;;;8.95;3.90;;;;;;;9.36;79.64;101274.47;5070100;28;20090;-88
2021/05/19 00:41:45;;;;;;;4.75;3.70;;;;;;;9.33;79.62;101278.38;5062167;28;20025;-88
2021/05/19 00:44:14;;;;;;;7.35;4.10;;;;;;;9.33;80.19;101273.03;5071717;28;20020;-88
2021/05/19 00:46:45;;;;;;;7.25;3.67;;;;;;;9.31;80.34;101266.28;5069433;28;20024;-88
2021/05/19 00:49:11;;;;;;;5.82;3.88;;;;;;;9.35;79.90;101256.78;5072033;28;20025;-87
2021/05/19 00:51:37;;;;;;;5.70;3.58;;;;;;;9.36;80.05;101261.91;5071218;28;20028;-87
2021/05/19 00:54:03;;;;;;;7.78;3.95;;;;;;;9.38;79.72;101264.34;5061535;28;20028;-86
2021/05/19 00:56:29;;;;;;;6.35;3.85;;;;;;;9.42;79.73;101267.38;5070251;28;20056;-88
2021/05/19 00:58:58;;;;;;;8.65;4.32;;;;;;;9.43;79.79;101271.69;5053415;28;20035;-88
2021/05/19 01:01:24;;;;;;;9.18;5.13;;;;;;;9.46;80.18;101271.22;5065074;28;20017;-87
2021/05/19 01:03:50;;;;;;;6.18;4.15;;;;;;;9.44;79.97;101267.97;5070806;28;20024;-87
2021/05/19 01:06:29;;;;;;;11.57;4.93;;;;;;;9.38;80.45;101270.53;5061046;28;20032;-88
2021/05/19 01:11:39;;;;;;;7.80;4.85;;;;;;;9.34;80.44;101269.34;5069397;28;20089;-88
2021/05/19 01:14:04;;;;;;;6.25;4.22;;;;;;;9.32;80.62;101270.59;5069079;28;20024;-88
2021/05/19 01:16:30;;;;;;;6.68;4.90;;;;;;;9.31;80.40;101269.78;5070343;28;20025;-88
2021/05/19 01:18:56;;;;;;;8.07;5.40;;;;;;;9.26;80.75;101272.31;5056934;28;20036;-88
2021/05/19 01:21:23;;;;;;;8.20;5.13;;;;;;;9.21;81.17;101271.38;5066467;28;20475;-88
2021/05/19 01:23:49;;;;;;;7.32;4.75;;;;;;;9.15;80.87;101275.75;5066094;28;20020;-88
2021/05/19 01:26:15;;;;;;;6.65;4.57;;;;;;;9.04;81.56;101274.69;5062042;28;20025;-88
2021/05/19 01:28:42;;;;;;;8.80;5.07;;;;;;;8.89;82.57;101265.41;5065505;28;20021;-88
2021/05/19 01:31:08;;;;;;;8.68;4.88;;;;;;;8.83;82.28;101268.97;5060033;28;20027;-88
2021/05/19 01:33:37;;;;;;;8.32;4.75;;;;;;;8.76;82.52;101282.41;5066608;28;20166;-87
2021/05/19 01:36:03;;;;;;;12.07;5.82;;;;;;;8.64;83.04;101279.66;5060086;28;20131;-86
2021/05/19 01:38:28;;;;;;;13.88;6.47;;;;;;;8.50;85.17;101283.50;5070587;28;20101;-88
2021/05/19 01:40:54;;;;;;;10.05;5.80;;;;;;;8.48;85.20;101277.59;5063962;28;20443;-88
2021/05/19 01:43:29;;;;;;;10.35;5.15;;;;;;;8.41;84.87;101282.16;5063509;28;20224;-88
2021/05/19 01:45:57;;;;;;;10.70;5.72;;;;;;;8.37;84.97;101283.63;5068154;28;20107;-88
2021/05/19 01:48:24;;;;;;;10.30;5.57;;;;;;;8.29;85.14;101282.03;5063616;28;20094;-88
2021/05/19 01:50:50;;;;;;;10.07;5.35;;;;;;;8.28;84.25;101290.28;5060614;28;20032;-88
2021/05/19 01:53:16;;;;;;;9.05;5.65;;;;;;;8.13;86.44;101294.09;5070788;28;20020;-88
2021/05/19 01:55:42;;;;;;;10.40;5.43;;;;;;;8.15;85.41;101294.69;5070320;28;20107;-88
2021/05/19 01:58:08;;;;;;;11.85;5.97;;;;;;;8.16;84.81;101303.50;5071362;28;20141;-88
2021/05/19 02:00:33;;;;;;;8.50;5.50;;;;;;;8.17;84.47;101303.28;5067989;28;20522;-88
2021/05/19 02:03:04;;;;;;;7.05;5.20;;;;;;;8.26;84.51;101301.19;5056636;28;20078;-88
2021/05/19 02:05:32;;;;;;;6.63;4.57;;;;;;;8.36;84.11;101309.53;5066715;28;20031;-88
2021/05/19 02:07:58;;;;;;;6.65;4.50;;;;;;;8.44;83.62;101301.25;5066261;28;20028;-88
2021/05/19 02:10:25;;;;;;;5.68;3.63;;;;;;;8.45;83.37;101294.06;5068045;28;20111;-88
2021/05/19 02:12:51;;;;;;;5.18;3.67;;;;;;;8.37;83.22;101302.31;5064731;28;20107;-88
2021/05/19 02:15:16;;;;;;;4.38;3.08;;;;;;;8.25;83.23;101298.69;5067764;28;20466;-87
2021/05/19 02:17:43;;;;;;;5.32;4.07;;;;;;;8.15;83.44;101302.69;5070218;28;20031;-88
2021/05/19 02:20:15;;;;;;;6.28;4.22;;;;;;;7.99;83.25;101297.91;5064634;28;20029;-88
2021/05/19 02:22:41;;;;;;;9.18;5.53;;;;;;;7.92;83.24;101299.81;5061140;28;20071;-88
2021/05/19 02:25:08;;;;;;;9.23;5.50;;;;;;;7.83;83.30;101301.09;5068252;28;20360;-88
2021/05/19 02:27:33;;;;;;;10.00;5.15;;;;;;;7.74;83.52;101302.41;5068962;28;20032;-86
2021/05/19 02:29:59;;;;;;;9.18;6.45;;;;;;;7.54;85.10;101307.84;5070079;28;20438;-88
2021/05/19 02:32:26;;;;;;;12.80;6.95;;;;;;;7.48;85.14;101301.53;5070573;28;20024;-88
2021/05/19 02:37:20;;;;;;;10.55;6.05;;;;;;;7.32;85.58;101303.88;5071216;28;20160;-46
2021/05/19 02:39:45;;;;;;;10.80;5.60;;;;;;;7.29;85.39;101307.78;5070124;28;20055;-47
2021/05/19 02:42:11;;;;;;;12.63;6.57;;;;;;;7.23;84.95;101311.31;5072701;28;20031;-47
2021/05/19 02:44:36;;;;;;;18.52;8.27;;;;;;;7.17;85.52;101310.28;5071269;28;20505;-48
2021/05/19 02:47:03;;;;;;;17.88;8.65;;;;;;;7.05;88.67;101308.50;5072328;28;20063;-48
2021/05/19 02:49:28;;;;;;;12.40;6.68;;;;;;;7.09;87.55;101315.88;5076855;22;20047;-80
2021/05/19 02:51:54;;;;;;;12.95;6.93;;;;;;;7.09;87.67;101309.72;5063709;28;20023;-76
2021/05/19 02:54:19;;;;;;;11.85;6.82;;;;;;;7.03;88.76;101313.22;5071323;28;20039;-77
2021/05/19 02:56:45;;;;;;;12.35;6.88;;;;;;;6.98;89.66;101316.50;5076355;28;20027;-77
2021/05/19 02:59:11;;;;;;;10.57;6.97;;;;;;;7.02;88.75;101319.59;5062322;28;20023;-77
2021/05/19 03:01:36;;;;;;;12.95;7.32;;;;;;;7.00;88.27;101319.78;5074284;28;20031;-78
2021/05/19 03:04:02;;;;;;;9.50;5.55;;;;;;;7.01;87.92;101315.28;5072568;28;20033;-73
2021/05/19 03:06:28;;;;;;;8.75;5.95;;;;;;;6.96;87.23;101316.72;5075067;28;20413;-73
2021/05/19 03:08:54;;;;;;;10.80;6.03;;;;;;;6.91;86.85;101324.53;5058060;28;20172;-73
2021/05/19 03:11:20;;;;;;;10.85;4.60;;;;;;;6.85;85.99;101325.38;5070655;28;20020;-73
2021/05/19 03:13:46;;;;;;;10.20;5.30;;;;;;;6.70;86.91;101324.78;5071183;28;20031;-74
2021/05/19 03:16:12;;;;;;;9.27;4.97;;;;;;;6.70;86.33;101329.31;5069198;28;20032;-73
2021/05/19 03:18:37;;;;;;;8.48;4.10;;;;;;;6.68;86.22;101328.69;5073785;28;20028;-73
2021/05/19 03:21:04;;;;;;;7.07;3.65;;;;;;;6.67;86.16;101330.53;5071303;28;20032;-73
2021/05/19 03:23:30;;;;;;;11.35;5.38;;;;;;;6.57;88.22;101330.13;5072203;28;20076;-73
2021/05/19 03:25:56;;;;;;;8.15;5.13;;;;;;;6.52;89.70;101324.63;5064089;28;20027;-73
2021/05/19 03:28:22;;;;;;;6.60;4.22;;;;;;;6.65;88.28;101330.75;5055559;28;20110;-73
2021/05/19 03:30:48;;;;;;;11.95;6.40;;;;;;;6.66;89.83;101336.91;5060420;28;20019;-73
2021/05/19 03:33:13;;;;;;;10.60;6.40;;;;;;;6.78;88.18;101343.19;5052506;28;20032;-73
2021/05/19 03:35:39;;;;;;;8.13;5.07;;;;;;;6.85;87.05;101333.38;5052965;28;20016;-73
2021/05/19 03:38:04;;;;;;;9.50;5.68;;;;;;;6.88;86.37;101340.94;5070148;28;20039;-73
2021/05/19 03:40:30;;;;;;;7.50;5.25;;;;;;;6.86;86.17;101343.00;5071511;28;20113;-73
2021/05/19 03:42:56;;;;;;;10.10;5.50;;;;;;;6.95;85.66;101346.25;5062599;28;20085;-73
2021/05/19 03:45:24;;;;;;;8.20;4.57;;;;;;;7.07;85.44;101346.41;5068694;28;20020;-73
2021/05/19 03:47:53;;;;;;;6.43;4.50;;;;;;;7.16;85.16;101353.94;5058767;28;20021;-73
2021/05/19 03:50:21;;;;;;;4.80;3.30;;;;;;;7.27;84.39;101355.16;5072795;28;20106;-73
2021/05/19 03:52:46;;;;;;;5.95;4.40;;;;;;;7.37;84.35;101350.19;5073514;28;20670;-73
2021/05/19 03:55:13;;;;;;;8.57;5.22;;;;;;;7.51;83.51;101356.25;5059228;28;20139;-73
2021/05/19 03:57:39;;;;;;;9.10;6.07;;;;;;;7.61;83.34;101350.50;5070364;28;20398;-73
2021/05/19 04:00:07;;;;;;;13.50;7.22;;;;;;;7.74;83.11;101353.09;5059818;28;20036;-73
2021/05/19 04:02:33;;;;;;;8.50;5.70;;;;;;;7.82;83.49;101353.63;5069669;28;20720;-73
2021/05/19 04:04:58;;;;;;;9.45;6.30;;;;;;;7.96;82.55;101354.38;5059924;28;20241;-73
2021/05/19 04:07:23;;;;;;;10.43;6.35;;;;;;;8.06;82.62;101354.69;5059005;28;20039;-73
2021/05/19 04:09:49;;;;;;;14.43;7.10;;;;;;;8.18;82.27;101347.63;5060048;28;20033;-73
2021/05/19 04:12:15;;;;;;;13.00;6.28;;;;;;;8.29;82.47;101359.47;5073028;28;20024;-73
2021/05/19 04:14:40;;;;;;;9.75;6.28;;;;;;;8.36;82.65;101356.75;5072032;28;20039;-73
2021/05/19 04:17:06;;;;;;;10.40;6.63;;;;;;;8.47;82.41;101358.72;5071003;28;20039;-73
2021/05/19 04:19:33;;;;;;;11.23;5.90;;;;;;;8.58;82.09;101360.66;5069578;28;20367;-74
2021/05/19 04:21:59;;;;;;;9.23;5.60;;;;;;;8.64;82.34;101357.13;5053573;28;20561;-73
2021/05/19 04:24:24;;;;;;;10.00;6.28;;;;;;;8.72;82.19;101359.50;5056440;28;20123;-74
2021/05/19 04:26:50;;;;;;;9.48;5.75;;;;;;;8.81;81.99;101357.38;5061137;28;20377;-73
2021/05/19 04:29:16;;;;;;;9.48;6.72;;;;;;;8.92;81.41;101361.97;5055633;28;20103;-73
2021/05/19 04:31:41;;;;;;;9.65;5.50;;;;;;;9.02;81.49;101369.50;5072249;28;20020;-74
2021/05/19 04:34:07;;;;;;;9.57;6.53;;;;;;;9.04;81.72;101364.75;5070255;28;20024;-74
2021/05/19 04:36:32;;;;;;;10.43;6.63;;;;;;;9.05;82.30;101369.03;5067170;28;20686;-74
2021/05/19 04:38:58;;;;;;;12.35;6.38;;;;;;;8.95;83.40;101358.84;5067590;28;20032;-74
2021/05/19 04:41:23;;;;;;;11.27;6.22;;;;;;;9.08;83.09;101369.41;5055956;28;20028;-74
2021/05/19 04:43:49;;;;;;;9.43;6.03;;;;;;;9.27;81.87;101367.53;5069531;28;20412;-74
2021/05/19 04:46:14;;;;;;;10.45;6.32;;;;;;;9.47;81.08;101371.81;5068492;28;20688;-73
2021/05/19 04:48:40;;;;;;;11.63;6.20;;;;;;;9.62;80.24;101365.03;5071154;28;20024;-73
2021/05/19 04:51:05;;;;;;;9.93;6.75;;;;;;;9.77;79.97;101369.19;5053233;28;20530;-74
2021/05/19 04:53:31;;;;;;;14.10;6.13;;;;;;;9.73;81.19;101376.03;5054683;28;20031;-74
2021/05/19 04:55:56;;;;;;;11.30;6.93;;;;;;;9.72;81.75;101377.06;5056612;28;20402;-74
2021/05/19 04:58:25;;;;;;;10.65;6.55;;;;;;;9.77;81.68;101378.03;5071998;28;20081;-74
2021/05/19 05:00:52;;;;;;;9.43;6.53;;;;;;;9.91;81.35;101373.31;5068685;28;20027;-73
2021/05/19 05:03:18;;;;;;;10.27;6.80;;;;;;;9.95;81.76;101377.97;5072361;28;20028;-73
2021/05/19 05:05:45;;;;;;;10.55;7.13;;;;;;;10.11;81.06;101378.34;5072328;28;20027;-73
2021/05/19 05:08:10;;;;;;;10.80;6.53;;;;;;;10.38;80.40;101381.44;5055769;28;20457;-74
2021/05/19 05:10:36;;;;;;;12.38;7.18;;;;;;;10.39;79.92;101386.56;5073012;28;20110;-74
2021/05/19 05:13:01;;;;;;;10.18;7.10;;;;;;;10.44;80.60;101384.03;5069140;28;20016;-74
2021/05/19 05:15:27;;;;;;;10.80;6.78;;;;;;;10.67;79.85;101385.91;5067611;28;20025;-74
2021/05/19 05:17:52;;;;;;;10.27;6.85;;;;;;;11.02;78.48;101379.72;5060456;28;20115;-74
2021/05/19 05:20:18;;;;;;;8.55;6.20;;;;;;;11.35;76.64;101387.13;5068839;28;20383;-74
2021/05/19 05:22:44;;;;;;;8.88;6.32;;;;;;;11.59;75.61;101385.97;5057974;28;20158;-74
2021/05/19 05:25:09;;;;;;;9.43;6.40;;;;;;;11.56;75.43;101381.09;5066554;28;20517;-74
2021/05/19 05:27:35;;;;;;;9.07;6.13;;;;;;;11.42;75.95;101388.59;5068419;28;20078;-74
2021/05/19 05:30:02;;;;;;;12.70;6.45;;;;;;;11.41;76.38;101394.22;5065465;28;20189;-74
2021/05/19 05:32:27;;;;;;;8.85;5.78;;;;;;;11.43;76.35;101392.91;5066832;28;20032;-74
2021/05/19 05:34:53;;;;;;;9.18;5.80;;;;;;;11.43;75.63;101389.41;5065140;28;20561;-74
2021/05/19 05:37:21;;;;;;;10.60;6.57;;;;;;;11.22;76.61;101387.38;5065762;28;20025;-74
2021/05/19 05:39:46;;;;;;;8.68;6.20;;;;;;;11.32;75.92;101390.28;5065859;28;20123;-73
2021/05/19 05:42:12;;;;;;;8.50;6.03;;;;;;;11.37;75.54;101387.69;5052599;28;20554;-74
2021/05/19 05:44:37;;;;;;;8.95;6.00;;;;;;;11.59;74.39;101388.66;5064520;28;20039;-74
2021/05/19 05:47:03;;;;;;;7.57;5.78;;;;;;;11.89;73.12;101384.97;5052070;28;20683;-74
2021/05/19 05:49:28;;;;;;;7.72;5.90;;;;;;;12.03;72.11;101391.66;5066417;28;20029;-74
2021/05/19 05:51:54;;;;;;;9.57;5.93;;;;;;;12.30;71.36;101394.53;5065344;28;20029;-74
2021/05/19 05:54:20;;;;;;;5.85;4.93;;;;;;;12.39;70.40;101390.41;5068900;28;20034;-74
2021/05/19 05:56:45;;;;;;;7.45;4.80;;;;;;;12.48;69.42;101394.28;5064261;28;20052;-74
2021/05/19 05:59:11;;;;;;;7.95;5.20;;;;;;;12.58;69.55;101397.16;5050263;28;20023;-74
2021/05/19 06:01:36;;;;;;;7.45;5.25;;;;;;;12.62;68.88;101397.47;5056125;28;20058;-74
2021/05/19 06:04:02;;;;;;;8.15;5.07;;;;;;;12.77;68.68;101392.31;5055908;28;20028;-74
2021/05/19 06:06:28;;;;;;;5.85;4.55;;;;;;;12.77;67.92;101396.91;5066521;28;20036;-74
2021/05/19 06:08:53;;;;;;;7.63;5.30;;;;;;;12.81;68.08;101388.06;5057450;28;20028;-74
2021/05/19 06:11:19;;;;;;;7.43;5.22;;;;;;;12.94;68.43;101395.81;5066348;28;20287;-74
2021/05/19 06:13:44;;;;;;;5.93;4.57;;;;;;;12.95;67.88;101383.97;5058051;28;20438;-74
2021/05/19 06:16:10;;;;;;;5.90;4.28;;;;;;;13.29;67.10;101386.59;5065632;28;20024;-75
2021/05/19 06:18:36;;;;;;;7.15;4.38;;;;;;;13.52;66.48;101390.91;5069232;28;20035;-74
2021/05/19 06:21:01;;;;;;;5.22;3.90;;;;;;;13.68;65.66;101386.50;5066683;28;20028;-75
2021/05/19 06:23:27;;;;;;;6.50;4.55;;;;;;;13.84;65.92;101391.81;5059863;28;22070;-75
2021/05/19 06:25:52;;;;;;;7.10;4.13;;;;;;;14.01;64.91;101394.41;5055022;28;20060;-75
2021/05/19 06:28:18;;;;;;;4.75;4.03;;;;;;;13.42;63.77;101393.47;5068335;28;20470;-75
2021/05/19 06:30:43;;;;;;;5.35;4.05;;;;;;;13.63;64.38;101389.94;5069366;28;20054;-75
2021/05/19 06:33:09;;;;;;;4.97;4.13;;;;;;;13.89;64.06;101389.16;5065202;28;20040;-74
2021/05/19 06:35:35;;;;;;;8.05;4.35;;;;;;;14.01;63.22;101398.97;5065394;28;20102;-75
2021/05/19 06:38:01;;;;;;;5.22;4.10;;;;;;;13.88;61.89;101403.69;5056742;28;20071;-75
2021/05/19 06:40:27;;;;;;;7.53;4.60;;;;;;;14.18;62.65;101405.03;5053579;28;20077;-75
2021/05/19 06:42:52;;;;;;;7.28;4.63;;;;;;;14.54;62.24;101400.78;5066868;28;20024;-74
2021/05/19 06:45:18;;;;;;;6.15;4.60;;;;;;;14.88;61.88;101395.88;5054483;28;20094;-75
2021/05/19 06:47:43;;;;;;;6.82;4.45;;;;;;;14.79;59.91;101403.66;5071341;28;20028;-75
2021/05/19 06:50:10;;;;;;;7.50;4.72;;;;;;;14.76;61.31;101401.50;5055207;28;20367;-75
2021/05/19 06:52:36;;;;;;;7.00;4.50;;;;;;;15.18;61.00;101402.53;5068447;28;20525;-75
2021/05/19 06:55:02;;;;;;;7.07;4.20;;;;;;;15.55;60.22;101400.53;5057341;28;20074;-78
2021/05/19 06:57:28;;;;;;;7.38;4.57;;;;;;;15.82;59.36;101407.69;5070685;28;20032;-80
2021/05/19 06:59:53;;;;;;;8.00;4.70;;;;;;;16.04;58.95;101402.84;5060264;28;20032;-77
2021/05/19 07:02:19;;;;;;;6.50;4.72;;;;;;;16.25;57.78;101404.47;5075414;28;20029;-79
2021/05/19 07:04:45;;;;;;;5.72;4.57;;;;;;;16.34;56.56;101402.06;5053619;28;20135;-79
2021/05/19 07:07:10;;;;;;;6.07;3.97;;;;;;;16.69;56.07;101409.34;5066815;28;20490;-81
2021/05/19 07:09:36;;;;;;;6.55;4.32;;;;;;;16.69;55.21;101408.53;5067302;28;20359;-78
2021/05/19 07:12:03;;;;;;;6.22;4.03;;;;;;;16.18;55.86;101403.94;5067020;28;20020;-78
2021/05/19 07:14:29;;;;;;;5.22;4.03;;;;;;;16.75;55.98;101404.75;5050310;28;20081;-79
2021/05/19 07:16:55;;;;;;;8.18;4.45;;;;;;;17.02;55.28;101413.34;5072464;28;20465;-78
2021/05/19 07:19:23;;;;;;;4.93;3.92;;;;;;;16.61;54.77;101415.28;5067189;28;20085;-78
2021/05/19 07:21:49;;;;;;;8.20;4.43;;;;;;;16.34;56.50;101412.88;5061826;28;20543;-79
2021/05/19 07:24:15;;;;;;;5.50;4.00;;;;;;;16.39;56.52;101414.78;5064418;28;20426;-78
2021/05/19 07:26:44;;;;;;;6.57;4.05;;;;;;;16.29;56.11;101415.56;5069568;28;20177;-78
2021/05/19 07:29:10;;;;;;;7.85;4.22;;;;;;;16.91;54.31;101415.28;5067863;28;20028;-78
2021/05/19 07:31:35;;;;;;;5.75;3.63;;;;;;;17.27;53.68;101412.47;5066581;28;20025;-80
2021/05/19 07:34:02;;;;;;;5.32;4.20;;;;;;;17.05;53.87;101422.81;5066877;28;20547;-78
2021/05/19 07:36:28;;;;;;;5.25;3.78;;;;;;;16.85;53.79;101424.47;5051571;28;20032;-78
2021/05/19 07:38:55;;;;;;;5.82;4.10;;;;;;;15.64;54.21;101425.19;5068202;28;20039;-78
2021/05/19 07:41:24;;;;;;;4.95;3.65;;;;;;;15.12;56.78;101417.91;5053760;28;20021;-78
2021/05/19 07:43:50;;;;;;;4.10;3.50;;;;;;;15.13;57.84;101414.13;5067720;28;20020;-78
2021/05/19 07:46:16;;;;;;;8.23;3.30;;;;;;;14.90;57.96;101418.06;5067103;28;20192;-78
2021/05/19 07:48:42;;;;;;;4.25;3.40;;;;;;;14.40;58.35;101421.97;5058734;28;20021;-78
2021/05/19 07:51:08;;;;;;;4.20;3.47;;;;;;;14.72;57.91;101430.06;5069531;28;20020;-78
2021/05/19 07:53:33;;;;;;;4.40;3.63;;;;;;;15.57;55.92;101419.97;5051384;28;20119;-78
2021/05/19 08:03:22;;;;;;;3.45;2.95;;;;;;;15.67;54.78;101419.25;5067446;28;20494;-78
2021/05/19 08:05:48;;;;;;;4.55;3.30;;;;;;;15.15;57.17;101420.06;5068853;28;20260;-79
2021/05/19 08:08:13;;;;;;;7.38;3.53;;;;;;;15.12;56.52;101428.69;5067987;28;20036;-78
2021/05/19 08:10:41;;;;;;;5.72;3.88;;;;;;;14.08;57.94;101432.72;5069035;28;20328;-78
2021/05/19 08:13:06;;;;;;;5.18;3.50;;;;;;;14.37;58.13;101425.19;5058492;28;20858;-78
2021/05/19 08:15:32;;;;;;;5.20;4.10;;;;;;;14.52;58.73;101429.88;5070734;28;20035;-78
2021/05/19 08:17:57;;;;;;;7.60;4.50;;;;;;;15.52;56.88;101421.84;5058801;28;20024;-78
2021/05/19 08:20:23;;;;;;;3.67;2.97;;;;;;;16.45;54.05;101419.91;5069228;28;20025;-80
2021/05/19 08:22:49;;;;;;;4.40;3.20;;;;;;;16.88;52.96;101420.44;5067621;28;20067;-78
2021/05/19 08:25:15;;;;;;;4.03;3.03;;;;;;;16.28;53.50;101419.34;5069908;28;20111;-79
2021/05/19 08:27:41;;;;;;;4.93;3.25;;;;;;;15.77;52.17;101421.97;5058578;28;20044;-78
2021/05/19 08:30:10;;;;;;;3.95;2.83;;;;;;;15.48;51.55;101424.28;5069570;28;20032;-77
2021/05/19 08:32:36;;;;;;;3.40;2.83;;;;;;;15.96;50.63;101416.88;5061427;28;20023;-77
2021/05/19 08:35:02;;;;;;;3.80;2.85;;;;;;;16.50;49.22;101424.47;5061228;28;20028;-77
2021/05/19 08:37:28;;;;;;;5.25;3.55;;;;;;;16.67;48.99;101413.41;5059287;28;20093;-78
2021/05/19 08:39:53;;;;;;;3.88;3.03;;;;;;;16.88;49.98;101418.56;5069558;28;20028;-78
2021/05/19 08:42:19;;;;;;;3.47;2.63;;;;;;;15.83;51.35;101429.03;5069908;28;20082;-77
2021/05/19 08:44:45;;;;;;;3.13;2.42;;;;;;;15.10;52.47;101426.25;5056399;28;20024;-79
2021/05/19 08:47:11;;;;;;;4.10;2.60;;;;;;;14.60;52.56;101426.75;5058502;28;20158;-78
2021/05/19 08:49:39;;;;;;;4.78;2.47;;;;;;;14.43;51.82;101436.81;5060453;28;20063;-77
2021/05/19 08:52:05;;;;;;;3.85;3.35;;;;;;;14.73;54.49;101445.19;5056927;28;20739;-79
2021/05/19 08:54:31;;;;;;;3.33;2.58;;;;;;;15.06;53.56;101430.53;5059071;28;20035;-77
2021/05/19 08:56:56;;;;;;;2.25;2.03;;;;;;;15.12;48.63;101431.41;5068104;28;20031;-78
2021/05/19 08:59:22;;;;;;;2.92;2.30;;;;;;;15.36;47.43;101429.91;5052068;28;20024;-78
2021/05/19 09:01:50;;;;;;;2.45;2.03;;;;;;;16.05;47.32;101427.97;5063664;28;20031;-78
2021/05/19 09:04:22;;;;;;;2.88;2.40;;;;;;;16.44;47.49;101423.69;5074519;28;20127;-78
2021/05/19 09:06:59;;;;;;;3.08;2.35;;;;;;;16.22;47.95;101421.25;5067479;28;20449;-78
2021/05/19 09:09:29;;;;;;;3.80;1.85;;;;;;;15.69;47.22;101422.50;5071020;28;20101;-79
2021/05/19 09:11:59;;;;;;;2.80;2.10;;;;;;;16.14;46.74;101429.06;5066347;28;20024;-78
2021/05/19 09:14:26;;;;;;;2.28;1.90;;;;;;;16.85;45.04;101426.38;5057772;28;20082;-75
2021/05/19 09:16:52;;;;;;;2.95;2.42;;;;;;;17.47;45.54;101425.94;5067497;28;20028;-75
2021/05/19 09:19:33;;;;;;;2.97;2.35;;;;;;;17.07;46.11;101424.19;5068569;28;20025;-75
2021/05/19 09:21:59;;;;;;;3.47;2.35;;;;;;;16.37;47.47;101425.84;5061244;28;20455;-75
2021/05/19 09:24:34;;;;;;;3.25;1.92;;;;;;;15.01;46.70;101438.59;5052511;28;20115;-75
2021/05/19 09:27:03;;;;;;;3.30;2.00;;;;;;;15.76;46.20;101425.75;5066173;28;20024;-75
2021/05/19 09:29:34;;;;;;;2.15;1.60;;;;;;;17.02;44.40;101428.78;5067777;28;20036;-75
2021/05/19 09:32:02;;;;;;;2.30;1.63;;;;;;;17.62;42.03;101421.53;5067012;28;20020;-75
2021/05/19 09:34:30;;;;;;;4.88;2.28;;;;;;;17.38;44.96;101418.66;5058417;28;20043;-75
2021/05/19 09:37:24;;;;;;;3.70;2.00;;;;;;;16.96;46.08;101425.28;5058957;28;20424;-75
2021/05/19 09:40:06;;;;;;;2.47;2.13;;;;;;;17.36;45.19;101424.34;5067480;28;20406;-75
2021/05/19 09:42:34;;;;;;;2.80;2.40;;;;;;;16.99;43.71;101419.31;5066089;28;20490;-75
2021/05/19 09:45:31;;;;;;;2.50;1.90;;;;;;;16.53;46.95;101432.09;5069986;28;20115;-75
2021/05/19 09:47:59;;;;;;;3.13;2.38;;;;;;;16.57;48.23;101433.97;5053473;28;20031;-75
2021/05/19 09:50:33;;;;;;;2.15;1.95;;;;;;;16.65;47.57;101427.19;5063146;28;20071;-75
2021/05/19 09:53:13;;;;;;;2.80;1.75;;;;;;;17.41;46.66;101421.59;5050814;28;20051;-75
2021/05/19 09:55:52;;;;;;;3.05;1.88;;;;;;;17.14;46.65;101419.28;5066584;28;20041;-77
2021/05/19 09:58:33;;;;;;;2.35;1.90;;;;;;;17.02;47.13;101424.19;5074170;28;20108;-78
2021/05/19 10:00:59;;;;;;;3.58;1.60;;;;;;;16.52;47.89;101438.56;5057400;28;20282;-78
2021/05/19 10:03:25;;;;;;;2.40;2.00;;;;;;;15.59;48.66;101422.44;5071354;28;20263;-77
2021/05/19 10:05:57;;;;;;;2.38;1.80;;;;;;;16.01;47.92;101430.41;5076033;28;20035;-78
2021/05/19 10:08:23;;;;;;;2.63;1.80;;;;;;;16.49;45.95;101423.69;5054909;28;20020;-78
2021/05/19 10:10:49;;;;;;;1.65;1.42;;;;;;;17.38;44.47;101421.34;5058730;28;20313;-78
2021/05/19 10:13:15;;;;;;;2.20;1.60;;;;;;;17.71;44.46;101423.41;5057957;28;20096;-79
2021/05/19 10:15:41;;;;;;;2.08;1.40;;;;;;;17.62;44.94;101427.78;5075313;28;20422;-78
2021/05/19 10:18:10;;;;;;;1.80;1.70;;;;;;;17.54;45.31;101428.34;5064940;28;20039;-78
2021/05/19 10:20:40;;;;;;;1.55;1.45;;;;;;;16.96;45.87;101428.00;5080835;28;20336;-79
2021/05/19 10:23:07;;;;;;;4.13;1.80;;;;;;;16.90;46.68;101418.28;5069452;28;20067;-79
2021/05/19 10:25:39;;;;;;;2.20;1.83;;;;;;;17.63;46.65;101421.25;5065401;28;20039;-78
2021/05/19 10:28:37;;;;;;;1.92;1.73;;;;;;;18.07;46.71;101425.91;5073544;28;20119;-79
2021/05/19 10:31:43;;;;;;;2.80;1.95;;;;;;;18.74;44.51;101421.59;5054958;28;20032;-78
2021/05/19 10:34:09;;;;;;;1.95;1.73;;;;;;;19.16;41.62;101425.50;5060124;28;20043;-84
2021/05/19 10:36:37;;;;;;;3.10;1.65;;;;;;;19.43;41.14;101412.16;5063521;28;20324;-81
2021/05/19 10:41:46;;;;;;;3.97;1.55;;;;;;;18.38;41.41;101413.75;5071291;28;20024;-83
2021/05/19 10:44:16;;;;;;;1.73;1.38;;;;;;;17.76;43.73;101412.53;5060112;28;20176;-83
2021/05/19 10:46:55;;;;;;;2.85;1.70;;;;;;;17.16;45.92;101427.94;5072565;28;20025;-80
2021/05/19 10:49:22;;;;;;;2.75;1.88;;;;;;;17.03;46.55;101435.81;5075287;28;20126;-80
2021/05/19 10:52:09;;;;;;;2.70;2.05;;;;;;;16.60;48.03;101433.41;5072071;28;20533;-81
2021/05/19 10:57:44;;;;;;;3.65;1.63;;;;;;;16.92;47.69;101441.28;5074597;28;20127;-80
2021/05/19 11:00:13;;;;;;;2.88;2.03;;;;;;;17.35;46.88;101443.59;5052631;28;20822;-81
2021/05/19 11:03:09;;;;;;;4.80;2.10;;;;;;;17.19;46.64;101445.53;5077004;28;20107;-80
2021/05/19 11:05:53;;;;;;;2.72;2.00;;;;;;;17.38;46.97;101438.41;5079116;28;20497;-80
2021/05/19 11:08:19;;;;;;;4.77;2.47;;;;;;;17.19;46.51;101443.63;5064022;28;20039;-80
2021/05/19 11:10:47;;;;;;;2.97;2.00;;;;;;;17.39;46.44;101433.81;5061159;28;20277;-81
2021/05/19 11:13:15;;;;;;;3.55;2.30;;;;;;;17.72;46.09;101441.28;5058852;28;20038;-80
2021/05/19 11:21:05;;;;;;;3.60;2.60;;;;;;;17.64;47.00;101438.34;5075047;28;20087;-80
2021/05/19 11:23:31;;;;;;;3.90;2.33;;;;;;;18.24;47.07;101425.50;5075166;28;20387;-81
2021/05/19 11:26:13;;;;;;;5.15;2.63;;;;;;;18.98;45.44;101424.34;5062389;28;20420;-81
2021/05/19 11:28:40;;;;;;;3.92;2.10;;;;;;;17.93;44.73;101425.72;5053768;28;20439;-81
2021/05/19 11:31:15;;;;;;;2.83;1.67;;;;;;;17.98;44.77;101430.31;5055826;28;20039;-80
2021/05/19 11:33:54;;;;;;;;;;;;;;;17.11;45.08;101438.78;5063070;28;20035;-80
2021/05/19 11:36:31;;;;;;;2.17;1.65;;;;;;;17.18;44.79;101427.66;5060027;28;20213;-80
2021/05/19 11:39:00;;;;;;;4.43;2.55;;;;;;;17.17;46.50;101426.84;5066130;28;20026;-81
2021/05/19 11:41:26;;;;;;;4.75;2.25;;;;;;;17.56;46.37;101426.16;5057410;28;20166;-81
2021/05/19 11:43:51;;;;;;;7.25;1.92;;;;;;;17.00;46.77;101436.38;5055374;28;20514;-83
2021/05/19 11:46:17;;;;;;;2.38;1.92;;;;;;;16.90;47.77;101434.50;5061227;28;20025;-79
2021/05/19 11:48:48;;;;;;;2.35;1.90;;;;;;;15.84;49.55;101429.84;5074153;28;20387;-81
2021/05/19 11:51:20;;;;;;;1.80;1.70;;;;;;;16.21;49.45;101429.63;5056058;28;20558;-80